createdAt,value
2023-04-05T00:14:49.802Z,4.25
2023-04-05T00:17:17.993Z,3.35
2023-04-05T00:19:45.143Z,4.37
2023-04-05T00:22:11.705Z,3.97
2023-04-05T00:24:41.976Z,4.00
2023-04-05T00:27:08.635Z,4.12
2023-04-05T00:35:12.705Z,4.37
2023-04-05T00:37:39.310Z,4.72
2023-04-05T00:40:06.552Z,4.40
2023-04-05T00:42:33.145Z,4.75
2023-04-05T00:45:56.386Z,4.60
2023-04-05T00:48:42.995Z,4.07
2023-04-05T00:51:11.900Z,4.70
2023-04-05T00:53:40.811Z,4.40
2023-04-05T00:56:08.402Z,4.20
2023-04-05T00:58:35.022Z,4.10
2023-04-05T01:01:13.911Z,4.12
2023-04-05T01:06:28.466Z,4.00
2023-04-05T01:09:10.552Z,4.20
2023-04-05T01:11:40.326Z,4.40
2023-04-05T01:14:06.918Z,3.92
2023-04-05T01:16:33.596Z,3.90
2023-04-05T01:23:37.820Z,4.47
2023-04-05T01:29:03.668Z,4.75
2023-04-05T01:31:51.598Z,4.75
2023-04-05T01:35:00.041Z,4.03
2023-04-05T01:37:32.882Z,4.47
2023-04-05T01:40:15.971Z,4.40
2023-04-05T01:42:46.170Z,4.43
2023-04-05T01:45:12.764Z,4.37
2023-04-05T01:47:39.495Z,4.55
2023-04-05T01:53:51.697Z,5.15
2023-04-05T01:56:18.250Z,5.85
2023-04-05T01:58:45.122Z,6.30
2023-04-05T02:01:12.062Z,6.53
2023-04-05T02:03:38.737Z,6.60
2023-04-05T02:06:06.071Z,6.50
2023-04-05T02:40:15.347Z,4.85
2023-04-05T02:42:42.249Z,4.37
2023-04-05T02:45:09.175Z,4.55
2023-04-05T02:47:36.000Z,4.65
2023-04-05T02:50:02.708Z,4.78
2023-04-05T02:55:24.859Z,4.50
2023-04-05T02:57:51.450Z,4.30
2023-04-05T03:00:18.664Z,4.80
2023-04-05T03:02:45.384Z,4.65
2023-04-05T03:05:14.002Z,4.15
2023-04-05T03:07:42.615Z,4.60
2023-04-05T03:13:46.887Z,4.80
2023-04-05T03:16:13.456Z,4.97
2023-04-05T03:18:40.079Z,5.15
2023-04-05T03:21:06.750Z,5.40
2023-04-05T03:23:34.011Z,5.20
2023-04-05T03:26:01.466Z,5.60
2023-04-05T03:31:09.707Z,5.78
2023-04-05T03:33:36.340Z,5.25
2023-04-05T03:36:03.108Z,5.87
2023-04-05T03:38:32.623Z,6.00
2023-04-05T03:40:59.199Z,7.05
2023-04-05T03:47:21.857Z,6.47
2023-04-05T04:07:02.798Z,6.65
2023-04-05T04:09:29.929Z,6.18
2023-04-05T04:11:57.202Z,6.90
2023-04-05T04:14:24.643Z,8.00
2023-04-05T04:16:51.304Z,7.75
2023-04-05T04:19:46.798Z,8.13
2023-04-05T04:22:38.878Z,8.05
2023-04-05T04:25:10.474Z,8.13
2023-04-05T04:27:41.958Z,8.32
2023-04-05T04:30:10.819Z,8.73
2023-04-05T04:32:54.141Z,8.90
2023-04-05T04:35:24.690Z,9.00
2023-04-05T04:40:46.901Z,8.95
2023-04-05T04:43:17.475Z,9.15
2023-04-05T04:45:47.062Z,10.80
2023-04-05T04:48:17.249Z,10.57
2023-04-05T04:50:44.688Z,8.88
2023-04-05T04:54:03.996Z,10.07
2023-04-05T04:56:52.378Z,9.88
2023-04-05T04:59:19.032Z,10.10
2023-04-05T05:01:46.259Z,9.90
2023-04-05T05:04:12.915Z,9.25
2023-04-05T05:06:55.838Z,8.50
2023-04-05T05:09:22.375Z,7.80
2023-04-05T05:11:48.987Z,7.70
2023-04-05T05:14:15.737Z,8.50
2023-04-05T05:16:42.417Z,7.12
2023-04-05T05:19:09.003Z,7.28
2023-04-05T05:21:36.856Z,10.80
2023-04-05T05:24:04.492Z,8.65
2023-04-05T05:29:06.547Z,7.30
2023-04-05T05:31:33.841Z,6.60
2023-04-05T05:34:00.485Z,6.57
2023-04-05T05:36:28.287Z,6.60
2023-04-05T05:38:54.924Z,6.30
2023-04-05T05:41:22.344Z,6.57
2023-04-05T05:43:48.911Z,6.10
2023-04-05T05:46:16.094Z,6.40
2023-04-05T05:48:42.748Z,6.18
2023-04-05T05:51:12.051Z,6.37
2023-04-05T05:53:40.138Z,5.80
2023-04-05T05:56:11.259Z,5.93
2023-04-05T05:58:38.154Z,5.85
2023-04-05T06:01:11.986Z,6.03
2023-04-05T06:03:38.815Z,5.15
2023-04-05T06:06:08.452Z,5.05
2023-04-05T06:08:35.100Z,4.35
2023-04-05T06:11:01.771Z,4.90
2023-04-05T06:13:46.877Z,4.75
2023-04-05T06:16:13.512Z,4.50
2023-04-05T06:18:40.176Z,5.20
2023-04-05T06:21:06.750Z,4.60
2023-04-05T06:27:16.480Z,3.97
2023-04-05T06:29:43.042Z,3.95
2023-04-05T06:32:09.705Z,3.65
2023-04-05T06:34:36.529Z,4.30
2023-04-05T06:37:03.558Z,3.40
2023-04-05T06:39:30.172Z,3.42
2023-04-05T06:41:57.844Z,3.58
2023-04-05T06:44:24.505Z,4.35
2023-04-05T06:46:51.948Z,3.95
2023-04-05T06:49:18.614Z,3.92
2023-04-05T06:51:45.689Z,4.40
2023-04-05T06:54:12.287Z,4.30
2023-04-05T06:56:44.840Z,4.82
2023-04-05T06:59:11.467Z,4.43
2023-04-05T07:01:38.158Z,4.35
2023-04-05T07:04:04.970Z,4.50
2023-04-05T07:06:34.564Z,4.82
2023-04-05T07:09:01.992Z,5.03
2023-04-05T07:11:28.690Z,5.20
2023-04-05T07:13:55.358Z,4.65
2023-04-05T07:16:23.751Z,5.15
2023-04-05T07:18:51.201Z,4.43
2023-04-05T07:21:17.777Z,4.90
2023-04-05T07:23:44.363Z,4.37
2023-04-05T07:26:12.449Z,4.57
2023-04-05T07:28:39.131Z,4.35
2023-04-05T07:31:07.042Z,4.37
2023-04-05T07:33:34.240Z,4.03
2023-04-05T07:36:01.082Z,4.20
2023-04-05T07:38:29.720Z,3.80
2023-04-05T07:40:56.548Z,4.50
2023-04-05T07:43:25.514Z,4.53
2023-04-05T07:45:53.549Z,3.92
2023-04-05T07:48:21.174Z,4.28
2023-04-05T07:50:49.185Z,4.30
2023-04-05T07:53:17.029Z,4.35
2023-04-05T07:55:43.596Z,4.45
2023-04-05T07:58:11.068Z,3.85
2023-04-05T08:00:38.513Z,3.92
2023-04-05T08:03:05.384Z,3.70
2023-04-05T08:05:32.041Z,3.58
2023-04-05T08:07:58.850Z,4.05
2023-04-05T08:10:26.206Z,3.33
2023-04-05T08:12:53.548Z,3.62
2023-04-05T08:15:20.150Z,4.20
2023-04-05T08:17:47.115Z,3.72
2023-04-05T08:20:13.817Z,3.72
2023-04-05T08:22:40.602Z,3.83
2023-04-05T08:25:08.019Z,3.72
2023-04-05T08:27:34.614Z,3.60
2023-04-05T08:30:01.417Z,3.40
2023-04-05T08:35:23.789Z,3.70
2023-04-05T08:37:50.900Z,3.30
2023-04-05T08:40:17.684Z,3.50
2023-04-05T08:43:12.337Z,3.65
2023-04-05T08:45:50.227Z,3.58
2023-04-05T08:48:17.799Z,3.60
2023-04-05T08:50:55.930Z,3.75
2023-04-05T08:53:23.959Z,3.87
2023-04-05T08:55:53.360Z,3.50
2023-04-05T08:58:25.465Z,3.95
2023-04-05T09:00:57.522Z,3.40
2023-04-05T09:03:29.911Z,3.78
2023-04-05T09:05:59.502Z,3.50
2023-04-05T09:08:26.237Z,3.60
2023-04-05T09:10:52.907Z,3.62
2023-04-05T09:13:19.911Z,3.85
2023-04-05T09:15:47.191Z,3.33
2023-04-05T09:18:25.481Z,3.87
2023-04-05T09:23:29.151Z,3.58
2023-04-05T09:25:55.934Z,3.62
2023-04-05T09:28:22.656Z,3.40
2023-04-05T09:30:49.355Z,4.50
2023-04-05T09:33:20.955Z,4.30
2023-04-05T09:35:51.337Z,4.22
2023-04-05T09:38:18.003Z,4.57
2023-04-05T09:40:45.932Z,4.60
2023-04-05T09:43:14.682Z,4.80
2023-04-05T09:45:42.922Z,5.60
2023-04-05T09:48:10.214Z,7.20
2023-04-05T09:50:37.012Z,5.05
2023-04-05T09:53:16.579Z,4.25
2023-04-05T09:55:43.972Z,3.83
2023-04-05T09:58:23.838Z,3.80
2023-04-05T10:01:17.083Z,4.32
2023-04-05T10:04:04.546Z,4.60
2023-04-05T10:06:49.434Z,4.75
2023-04-05T10:09:18.082Z,5.20
2023-04-05T10:11:45.999Z,5.15
2023-04-05T10:14:12.587Z,5.30
2023-04-05T10:19:24.471Z,4.93
2023-04-05T10:21:54.169Z,4.87
2023-04-05T10:24:23.564Z,4.80
2023-04-05T10:27:16.137Z,5.25
2023-04-05T10:30:06.434Z,5.50
2023-04-05T10:37:08.645Z,5.22
2023-04-05T10:39:42.725Z,4.70
2023-04-05T10:42:24.064Z,5.05
2023-04-05T10:45:02.438Z,4.53
2023-04-05T10:47:32.346Z,4.32
2023-04-05T10:50:03.769Z,3.97
2023-04-05T10:52:31.048Z,4.25
2023-04-05T10:55:02.923Z,4.70
2023-04-05T10:57:30.332Z,4.60
2023-04-05T11:00:00.190Z,4.15
2023-04-05T11:02:29.711Z,4.35
2023-04-05T11:04:57.153Z,4.10
2023-04-05T11:07:24.106Z,4.20
2023-04-05T11:10:04.430Z,4.40
2023-04-05T11:12:49.353Z,4.35
2023-04-05T11:15:29.221Z,4.75
2023-04-05T11:18:18.079Z,4.47
2023-04-05T11:20:51.897Z,4.43
2023-04-05T11:23:23.398Z,4.12
2023-04-05T11:26:03.108Z,4.65
2023-04-05T11:28:32.050Z,4.37
2023-04-05T11:31:13.133Z,4.28
2023-04-05T11:33:56.917Z,5.07
2023-04-05T11:36:52.276Z,5.12
2023-04-05T11:39:18.897Z,5.37
2023-04-05T11:42:02.118Z,5.12
2023-04-05T11:46:59.946Z,5.55
2023-04-05T11:49:28.777Z,4.97
2023-04-05T11:51:55.750Z,4.53
2023-04-05T11:54:50.273Z,4.60
2023-04-05T11:57:22.474Z,4.12
2023-04-05T11:59:53.680Z,5.18
2023-04-05T12:02:21.477Z,5.12
2023-04-05T12:04:58.594Z,4.85
2023-04-05T12:07:32.040Z,4.60
2023-04-05T12:10:11.083Z,4.50
2023-04-05T12:12:39.861Z,5.00
2023-04-05T12:15:09.044Z,5.00
2023-04-05T12:17:43.221Z,4.50
2023-04-05T12:20:11.676Z,4.68
2023-04-05T12:22:39.068Z,4.25
2023-04-05T12:25:06.297Z,4.32
2023-04-05T12:27:34.107Z,4.10
2023-04-05T12:30:17.893Z,4.47
2023-04-05T12:32:52.579Z,3.95
2023-04-05T12:35:44.540Z,3.75
2023-04-05T12:38:15.952Z,3.70
2023-04-05T12:40:42.621Z,4.25
2023-04-05T12:43:09.700Z,4.20
2023-04-05T12:45:40.520Z,4.03
2023-04-05T12:48:36.936Z,3.90
2023-04-05T12:51:35.728Z,3.53
2023-04-05T12:54:04.248Z,3.62
2023-04-05T12:56:30.963Z,3.30
2023-04-05T12:58:57.535Z,3.60
2023-04-05T13:01:24.145Z,3.22
2023-04-05T13:03:53.370Z,3.45
2023-04-05T13:06:23.463Z,3.83
2023-04-05T13:08:50.314Z,4.12
2023-04-05T13:11:17.062Z,3.50
2023-04-05T13:13:44.070Z,3.53
2023-04-05T13:16:10.770Z,3.95
2023-04-05T13:18:37.581Z,3.42
2023-04-05T13:21:10.138Z,3.22
2023-04-05T13:23:37.964Z,3.50
2023-04-05T13:26:05.357Z,3.33
2023-04-05T13:28:32.912Z,3.50
2023-04-05T13:30:59.806Z,3.87
2023-04-05T13:33:26.449Z,3.47
2023-04-05T13:35:53.059Z,3.65
2023-04-05T13:38:19.757Z,3.87
2023-04-05T13:40:46.477Z,4.20
2023-04-05T13:43:13.410Z,3.75
2023-04-05T13:45:40.201Z,3.92
2023-04-05T13:48:07.023Z,4.82
2023-04-05T13:50:35.677Z,4.10
2023-04-05T13:53:02.258Z,3.72
2023-04-05T13:55:28.869Z,3.87
2023-04-05T13:57:55.447Z,4.10
2023-04-05T14:00:22.338Z,4.40
2023-04-05T14:02:51.797Z,4.22
2023-04-05T14:05:18.614Z,4.25
2023-04-05T14:07:45.570Z,3.80
2023-04-05T14:10:12.356Z,4.30
2023-04-05T14:12:39.410Z,4.62
2023-04-05T14:15:06.700Z,4.78
2023-04-05T14:17:33.317Z,4.20
2023-04-05T14:19:59.919Z,4.00
2023-04-05T14:22:26.632Z,4.05
2023-04-05T14:24:53.313Z,4.15
2023-04-05T14:27:26.425Z,4.10
2023-04-05T14:30:05.713Z,4.12
2023-04-05T14:32:33.753Z,4.60
2023-04-05T14:35:00.814Z,4.70
2023-04-05T14:37:27.508Z,4.20
2023-04-05T14:39:57.328Z,4.40
2023-04-05T14:42:34.062Z,4.25
2023-04-05T14:45:08.783Z,4.28
2023-04-05T14:47:35.852Z,4.78
2023-04-05T14:50:02.520Z,4.30
2023-04-05T14:52:29.877Z,4.12
2023-04-05T14:54:56.450Z,4.30
2023-04-05T14:57:23.059Z,4.37
2023-04-05T14:59:49.661Z,5.97
2023-04-05T15:02:16.758Z,4.68
2023-04-05T15:04:43.858Z,4.05
2023-04-05T15:07:10.632Z,4.37
2023-04-05T15:09:37.252Z,8.57
2023-04-05T15:12:04.153Z,4.78
2023-04-05T15:14:32.507Z,4.22
2023-04-05T15:16:59.418Z,4.20
2023-04-05T15:19:27.416Z,4.07
2023-04-05T15:21:54.104Z,4.35
2023-04-05T15:24:20.753Z,4.22
2023-04-05T15:26:47.521Z,4.47
2023-04-05T15:29:14.159Z,4.45
2023-04-05T15:31:41.845Z,4.00
2023-04-05T15:34:08.623Z,4.45
2023-04-05T15:36:36.095Z,4.47
2023-04-05T15:39:05.017Z,4.45
2023-04-05T15:41:34.333Z,4.45
2023-04-05T15:44:01.389Z,4.15
2023-04-05T15:46:29.191Z,4.15
2023-04-05T15:48:56.196Z,4.07
2023-04-05T15:51:23.021Z,3.85
2023-04-05T15:53:49.674Z,3.87
2023-04-05T15:56:16.329Z,4.53
2023-04-05T15:58:42.996Z,4.40
2023-04-05T16:01:09.766Z,4.10
2023-04-05T16:03:36.623Z,4.20
2023-04-05T16:06:03.502Z,4.55
2023-04-05T16:08:30.393Z,4.25
2023-04-05T16:10:58.306Z,4.22
2023-04-05T16:13:25.076Z,4.57
2023-04-05T16:15:51.762Z,4.85
2023-04-05T16:18:24.850Z,4.97
2023-04-05T16:23:17.948Z,4.43
2023-04-05T16:25:44.654Z,5.03
2023-04-05T16:28:11.242Z,4.32
2023-04-05T16:30:37.877Z,4.25
2023-04-05T16:33:07.745Z,4.07
2023-04-05T16:35:34.436Z,3.55
2023-04-05T16:38:02.609Z,5.80
2023-04-05T16:40:29.201Z,6.57
2023-04-05T16:42:55.805Z,7.90
2023-04-05T16:45:22.372Z,5.03
2023-04-05T16:47:49.101Z,5.75
2023-04-05T16:50:15.809Z,4.70
2023-04-05T16:52:42.472Z,4.22
2023-04-05T16:55:10.393Z,4.10
2023-04-05T16:57:36.981Z,4.20
2023-04-05T17:00:05.772Z,4.43
2023-04-05T17:02:32.492Z,5.30
2023-04-05T17:04:59.132Z,4.28
2023-04-05T17:07:25.809Z,4.40
2023-04-05T17:09:52.924Z,4.70
2023-04-05T17:12:20.112Z,4.20
2023-04-05T17:14:46.712Z,5.32
2023-04-05T17:17:13.392Z,5.93
2023-04-05T17:19:39.997Z,9.18
2023-04-05T17:22:06.657Z,17.48
2023-04-05T17:24:34.741Z,22.52
2023-04-05T17:27:01.569Z,25.35
2023-04-05T17:29:28.237Z,26.65
2023-04-05T17:31:54.877Z,41.85
2023-04-05T17:34:21.442Z,39.88
2023-04-05T17:36:48.096Z,46.42
2023-04-05T17:39:17.633Z,45.53
2023-04-05T17:41:46.252Z,16.45
2023-04-05T17:44:13.063Z,21.98
2023-04-05T17:46:44.649Z,29.83
2023-04-05T17:49:15.379Z,19.50
2023-04-05T17:51:42.267Z,17.27
2023-04-05T17:54:08.978Z,19.08
2023-04-05T17:56:36.070Z,22.30
2023-04-05T17:59:04.111Z,18.80
2023-04-05T18:01:31.285Z,24.15
2023-04-05T18:03:59.313Z,28.95
2023-04-05T18:06:26.430Z,35.10
2023-04-05T18:08:53.088Z,51.72
2023-04-05T18:11:19.753Z,32.25
2023-04-05T18:13:47.507Z,36.05
2023-04-05T18:16:14.134Z,22.95
2023-04-05T18:18:41.094Z,17.33
2023-04-05T18:21:10.059Z,15.85
2023-04-05T18:23:36.854Z,20.17
2023-04-05T18:26:07.811Z,19.60
2023-04-05T18:28:34.415Z,18.05
2023-04-05T18:31:01.499Z,18.30
2023-04-05T18:33:28.057Z,17.85
2023-04-05T18:35:54.686Z,17.95
2023-04-05T18:38:21.859Z,17.98
2023-04-05T18:40:48.729Z,18.73
2023-04-05T18:43:15.345Z,17.17
2023-04-05T18:45:42.002Z,17.02
2023-04-05T18:48:08.714Z,16.70
2023-04-05T18:50:36.060Z,16.85
2023-04-05T18:53:02.661Z,15.40
2023-04-05T18:55:29.257Z,16.83
2023-04-05T18:57:56.044Z,16.20
2023-04-05T19:00:22.628Z,15.88
2023-04-05T19:02:49.260Z,15.55
2023-04-05T19:05:15.981Z,16.12
2023-04-05T19:07:42.587Z,16.55
2023-04-05T19:10:09.808Z,15.88
2023-04-05T19:12:36.420Z,13.85
2023-04-05T19:15:03.370Z,12.82
2023-04-05T19:17:31.219Z,12.73
2023-04-05T19:19:57.802Z,11.73
2023-04-05T19:22:24.360Z,12.00
2023-04-05T19:24:50.969Z,11.23
2023-04-05T19:27:17.516Z,11.27
2023-04-05T19:29:44.104Z,10.52
2023-04-05T19:32:11.078Z,8.82
2023-04-05T19:34:38.914Z,7.80
2023-04-05T19:37:36.648Z,7.22
2023-04-05T19:40:37.573Z,5.85
2023-04-05T19:43:04.846Z,5.65
2023-04-05T19:45:32.567Z,5.37
2023-04-05T19:48:01.272Z,6.10
2023-04-05T19:50:58.827Z,5.87
2023-04-05T19:53:48.351Z,6.72
2023-04-05T19:56:23.954Z,6.80
2023-04-05T19:58:56.882Z,6.75
2023-04-05T20:01:35.537Z,6.47
2023-04-05T20:04:13.260Z,6.12
2023-04-05T20:06:54.031Z,5.90
2023-04-05T20:09:23.668Z,6.65
2023-04-05T20:11:51.991Z,8.23
2023-04-05T20:14:24.777Z,9.50
2023-04-05T20:17:19.560Z,8.60
2023-04-05T20:20:17.266Z,8.57
2023-04-05T20:22:43.864Z,8.75
2023-04-05T20:25:43.959Z,8.55
2023-04-05T20:28:25.684Z,8.20
2023-04-05T20:30:53.314Z,8.32
2023-04-05T20:33:41.730Z,7.75
2023-04-05T20:36:21.682Z,6.32
2023-04-05T20:38:49.542Z,5.37
2023-04-05T20:41:18.688Z,5.93
2023-04-05T20:43:46.335Z,5.90
2023-04-05T20:46:22.204Z,5.70
2023-04-05T20:49:07.849Z,5.07
2023-04-05T20:51:39.304Z,5.30
2023-04-05T20:56:41.018Z,5.60
2023-04-05T20:59:08.185Z,5.43
2023-04-05T21:01:37.780Z,5.90
2023-04-05T21:04:05.742Z,5.30
2023-04-05T21:06:34.208Z,5.43
2023-04-05T21:09:01.209Z,5.75
2023-04-05T21:11:27.845Z,6.00
2023-04-05T21:13:54.513Z,5.75
2023-04-05T21:16:21.204Z,5.70
2023-04-05T21:18:47.900Z,5.60
2023-04-05T21:21:14.464Z,5.07
2023-04-05T21:23:41.517Z,5.50
2023-04-05T21:26:08.089Z,4.75
2023-04-05T21:28:34.719Z,5.60
2023-04-05T21:31:27.015Z,5.10
2023-04-05T21:34:17.544Z,5.35
2023-04-05T21:36:44.140Z,4.68
2023-04-05T21:39:10.978Z,5.00
2023-04-05T21:41:40.407Z,5.28
2023-04-05T21:44:06.971Z,5.07
2023-04-05T21:46:33.624Z,5.40
2023-04-05T21:49:00.344Z,5.03
2023-04-05T22:04:42.967Z,5.18
2023-04-05T22:07:09.642Z,5.30
2023-04-05T22:09:36.536Z,4.72
2023-04-05T22:14:58.556Z,5.22
2023-04-05T22:17:25.298Z,5.05
2023-04-05T22:19:51.944Z,4.72
2023-04-05T22:22:20.086Z,4.62
2023-04-05T22:24:47.417Z,5.05
2023-04-05T22:27:14.019Z,5.15
2023-04-05T22:29:40.824Z,5.05
2023-04-05T22:32:07.704Z,5.30
2023-04-05T22:34:58.554Z,4.93
2023-04-05T22:37:49.161Z,5.10
2023-04-05T22:40:26.955Z,5.35
2023-04-05T22:42:54.306Z,5.30
2023-04-05T22:45:21.151Z,5.10
2023-04-05T22:47:47.832Z,5.20
2023-04-05T22:50:19.694Z,5.45
2023-04-05T22:52:46.452Z,5.50
2023-04-05T22:55:13.163Z,5.18
2023-04-05T22:57:42.219Z,5.43
2023-04-05T23:00:09.258Z,5.72
2023-04-05T23:02:35.951Z,5.10
2023-04-05T23:05:22.521Z,5.55
2023-04-05T23:07:49.110Z,5.10
2023-04-05T23:10:15.896Z,5.65
2023-04-05T23:12:43.468Z,5.47
2023-04-05T23:15:32.051Z,4.97
2023-04-05T23:18:23.273Z,5.45
2023-04-05T23:20:50.139Z,5.50
2023-04-05T23:23:16.745Z,5.72
2023-04-05T23:25:43.341Z,5.22
2023-04-05T23:28:09.924Z,5.28
2023-04-05T23:30:36.532Z,5.75
2023-04-05T23:33:03.179Z,5.65
2023-04-05T23:35:29.930Z,5.80
2023-04-05T23:37:59.971Z,5.95
2023-04-05T23:40:26.655Z,5.12
2023-04-05T23:42:53.322Z,5.40
2023-04-05T23:45:51.796Z,5.40
2023-04-05T23:48:43.412Z,5.40
2023-04-05T23:51:10.049Z,4.87
2023-04-05T23:53:36.811Z,5.45
2023-04-05T23:56:03.606Z,5.05
2023-04-05T23:58:30.336Z,5.50
